Time;durP1;ratioP1;P1;durP2;ratioP2;P2;SDS_P1;SDS_P2;PMS_P1;PMS_P2;Temp;Humidity;BMP_temperature;BMP_pressure;BME280_temperature;BME280_humidity;BME280_pressure;Samples;Min_cycle;Max_cycle;Signal;HPM_P1;HPM_P2
2023/03/25 00:01:07;;;;;;;4.03;1.35;;;9.50;99.90;;;;;;5095532;28;20040;-74
2023/03/25 00:03:40;;;;;;;4.07;1.48;;;9.50;99.90;;;;;;5097317;28;20445;-75
2023/03/25 00:06:07;;;;;;;3.42;1.20;;;9.50;99.90;;;;;;5097364;28;20071;-74
2023/03/25 00:08:33;;;;;;;4.65;1.40;;;9.50;99.90;;;;;;5096484;28;20044;-74
2023/03/25 00:11:00;;;;;;;3.55;1.42;;;9.60;99.90;;;;;;5096059;28;20106;-75
2023/03/25 00:13:26;;;;;;;5.30;1.40;;;9.50;99.90;;;;;;5096569;28;20044;-74
2023/03/25 00:15:56;;;;;;;5.05;1.50;;;9.50;99.90;;;;;;5078308;28;20488;-74
2023/03/25 00:18:24;;;;;;;3.05;1.30;;;9.50;99.90;;;;;;5096738;28;20047;-76
2023/03/25 00:20:51;;;;;;;3.83;1.45;;;9.50;99.90;;;;;;5096218;28;20052;-76
2023/03/25 00:23:19;;;;;;;4.22;1.95;;;9.40;99.90;;;;;;5096611;28;20439;-74
2023/03/25 00:25:44;;;;;;;5.78;1.80;;;9.40;99.90;;;;;;5096551;28;20105;-76
2023/03/25 00:28:12;;;;;;;3.42;1.52;;;9.40;99.90;;;;;;5096738;28;20430;-76
2023/03/25 00:30:39;;;;;;;4.43;1.70;;;9.40;99.90;;;;;;5096259;28;20079;-75
2023/03/25 00:33:05;;;;;;;4.45;1.83;;;9.40;99.90;;;;;;5095950;28;20044;-77
2023/03/25 00:35:31;;;;;;;6.22;1.77;;;9.40;99.90;;;;;;5077872;28;20044;-75
2023/03/25 00:38:01;;;;;;;6.38;2.22;;;9.30;99.90;;;;;;5095765;28;20071;-74
2023/03/25 00:40:34;;;;;;;2.90;1.88;;;9.40;99.90;;;;;;5077965;28;20059;-75
2023/03/25 00:43:01;;;;;;;3.45;1.80;;;9.40;99.90;;;;;;5096047;28;20055;-75
2023/03/25 00:45:28;;;;;;;4.07;2.67;;;9.30;99.90;;;;;;5096470;28;20123;-75
2023/03/25 00:47:54;;;;;;;4.85;2.10;;;9.30;99.90;;;;;;5095689;28;20036;-75
2023/03/25 00:50:20;;;;;;;4.47;2.28;;;9.40;99.90;;;;;;5095670;28;20101;-75
2023/03/25 00:52:46;;;;;;;3.47;2.20;;;9.30;99.90;;;;;;5095607;28;20169;-75
2023/03/25 00:55:12;;;;;;;3.90;2.42;;;9.30;99.90;;;;;;5095524;28;20048;-75
2023/03/25 00:57:38;;;;;;;4.35;2.67;;;9.30;99.90;;;;;;5077464;28;20384;-75
2023/03/25 01:00:07;;;;;;;5.88;2.63;;;9.30;99.90;;;;;;5077275;28;20122;-75
2023/03/25 01:02:33;;;;;;;5.95;3.10;;;9.20;99.90;;;;;;5095351;28;20092;-73
2023/03/25 01:04:59;;;;;;;3.95;2.65;;;9.20;99.90;;;;;;5077424;28;20059;-75
2023/03/25 01:07:28;;;;;;;4.38;2.95;;;9.20;99.90;;;;;;5077750;28;20044;-75
2023/03/25 01:09:54;;;;;;;5.55;2.90;;;9.20;99.90;;;;;;5095065;28;20149;-74
2023/03/25 01:12:20;;;;;;;5.00;2.38;;;9.20;99.90;;;;;;5076927;28;20074;-75
2023/03/25 01:14:46;;;;;;;4.95;2.72;;;9.20;99.90;;;;;;5078131;28;20118;-75
2023/03/25 01:17:12;;;;;;;5.63;2.92;;;9.20;99.90;;;;;;5095539;28;20052;-75
2023/03/25 01:19:38;;;;;;;5.28;2.70;;;9.20;99.90;;;;;;5094970;28;20127;-74
2023/03/25 01:22:04;;;;;;;4.93;2.70;;;9.10;99.90;;;;;;5094620;28;20044;-74
2023/03/25 01:24:30;;;;;;;4.18;2.90;;;9.10;99.90;;;;;;5095031;28;20050;-74
2023/03/25 01:26:56;;;;;;;3.25;2.45;;;9.10;99.90;;;;;;5077013;28;20047;-74
2023/03/25 01:29:21;;;;;;;5.32;3.30;;;9.10;99.90;;;;;;5094910;28;20495;-75
2023/03/25 01:31:47;;;;;;;4.78;2.75;;;9.00;99.90;;;;;;5094776;28;20047;-74
2023/03/25 01:34:14;;;;;;;4.65;2.40;;;9.10;99.90;;;;;;5094755;28;20094;-75
2023/03/25 01:36:45;;;;;;;5.35;2.60;;;9.00;99.90;;;;;;5095401;28;20063;-75
2023/03/25 01:39:12;;;;;;;6.03;2.85;;;9.00;99.90;;;;;;5094838;28;20094;-75
2023/03/25 01:41:38;;;;;;;3.83;2.17;;;9.00;99.90;;;;;;5094857;28;20052;-75
2023/03/25 01:44:08;;;;;;;6.53;2.53;;;9.00;99.90;;;;;;5094623;28;20052;-75
2023/03/25 01:46:36;;;;;;;5.00;2.50;;;9.00;99.90;;;;;;5060136;28;20124;-76
2023/03/25 01:49:07;;;;;;;7.80;2.70;;;8.90;99.90;;;;;;5077403;28;20052;-74
2023/03/25 01:51:39;;;;;;;3.85;1.88;;;8.90;99.90;;;;;;5094234;28;20497;-74
2023/03/25 01:54:05;;;;;;;5.10;2.63;;;8.90;99.90;;;;;;5077310;28;20063;-75
2023/03/25 01:56:36;;;;;;;6.78;2.67;;;8.80;99.90;;;;;;5094348;28;20044;-74
2023/03/25 01:59:05;;;;;;;6.93;2.33;;;8.80;99.90;;;;;;5094254;28;20044;-75
2023/03/25 02:01:31;;;;;;;5.63;2.42;;;8.80;99.90;;;;;;5076237;28;20079;-74
2023/03/25 02:04:08;;;;;;;4.85;2.22;;;8.70;99.90;;;;;;5094232;28;20079;-75
2023/03/25 02:06:46;;;;;;;5.70;2.53;;;8.70;99.90;;;;;;5094734;28;20055;-75
2023/03/25 02:09:15;;;;;;;6.18;2.50;;;8.60;99.90;;;;;;5094365;28;20067;-75
2023/03/25 02:11:41;;;;;;;8.43;2.33;;;8.40;99.90;;;;;;5094597;28;20082;-75
2023/03/25 02:14:10;;;;;;;7.78;3.08;;;8.40;99.90;;;;;;5093944;28;20040;-75
2023/03/25 02:16:41;;;;;;;5.15;2.47;;;8.40;99.90;;;;;;5094050;28;20039;-74
2023/03/25 02:19:31;;;;;;;7.45;2.35;;;8.30;99.90;;;;;;5093857;28;20047;-75
2023/03/25 02:22:36;;;;;;;5.53;2.50;;;8.20;99.90;;;;;;5093935;28;20101;-74
2023/03/25 02:25:50;;;;;;;6.32;2.58;;;8.10;99.90;;;;;;5093556;28;20055;-75
2023/03/25 02:28:24;;;;;;;7.00;2.72;;;8.10;99.90;;;;;;5017623;28;20052;-77
2023/03/25 02:31:12;;;;;;;5.28;2.17;;;7.70;99.90;;;;;;5093534;28;20523;-75
2023/03/25 02:33:55;;;;;;;5.47;2.25;;;8.00;99.90;;;;;;5094059;28;20043;-76
2023/03/25 02:36:45;;;;;;;7.75;2.60;;;8.00;99.90;;;;;;5076120;28;20391;-76
2023/03/25 02:39:44;;;;;;;6.38;2.03;;;8.00;99.90;;;;;;5094301;28;20203;-75
2023/03/25 02:42:13;;;;;;;5.65;2.10;;;7.90;99.90;;;;;;5093616;28;20052;-75
2023/03/25 02:45:14;;;;;;;7.72;2.25;;;7.90;99.90;;;;;;5076001;28;20095;-75
2023/03/25 02:47:46;;;;;;;4.20;1.50;;;7.90;99.90;;;;;;5076201;28;20056;-75
2023/03/25 02:50:32;;;;;;;4.57;2.08;;;7.90;99.90;;;;;;5094114;28;20048;-74
2023/03/25 02:53:01;;;;;;;4.40;2.15;;;7.80;99.90;;;;;;5094113;28;20135;-74
2023/03/25 02:55:32;;;;;;;7.05;2.58;;;7.90;99.90;;;;;;5093515;28;20044;-75
2023/03/25 02:58:02;;;;;;;9.30;2.45;;;7.90;99.90;;;;;;5093444;28;20047;-73
2023/03/25 03:00:29;;;;;;;9.10;2.83;;;7.90;99.90;;;;;;5075679;28;20149;-75
2023/03/25 03:03:03;;;;;;;10.45;2.50;;;7.90;99.90;;;;;;5093404;28;20098;-75
2023/03/25 03:05:32;;;;;;;8.63;2.60;;;7.90;99.90;;;;;;5075798;28;20036;-76
2023/03/25 03:08:25;;;;;;;7.22;3.00;;;7.90;99.90;;;;;;5093374;28;20083;-75
2023/03/25 03:11:03;;;;;;;8.57;2.60;;;8.00;99.90;;;;;;5093493;28;20067;-75
2023/03/25 03:14:02;;;;;;;7.70;2.35;;;8.00;99.90;;;;;;5076240;28;20143;-73
2023/03/25 03:17:03;;;;;;;7.57;2.25;;;8.00;99.90;;;;;;5076209;28;20063;-75
2023/03/25 03:19:45;;;;;;;8.35;2.42;;;8.00;99.90;;;;;;5087825;28;20131;-76
2023/03/25 03:22:28;;;;;;;7.28;2.85;;;7.90;99.90;;;;;;5094082;28;20063;-76
2023/03/25 03:24:57;;;;;;;8.77;2.65;;;7.90;99.90;;;;;;5075443;28;20051;-76
2023/03/25 03:27:45;;;;;;;6.43;2.30;;;7.90;99.90;;;;;;5093136;28;20059;-75
2023/03/25 03:30:41;;;;;;;8.73;2.35;;;7.90;99.90;;;;;;5075366;28;20084;-76
2023/03/25 03:33:28;;;;;;;6.57;2.38;;;7.90;99.90;;;;;;5076095;28;20086;-76
2023/03/25 03:36:00;;;;;;;6.90;1.92;;;7.90;99.90;;;;;;5096509;28;20044;-75
2023/03/25 03:38:31;;;;;;;9.10;2.20;;;7.90;99.90;;;;;;5097060;28;20044;-76
2023/03/25 03:41:01;;;;;;;5.85;1.90;;;7.90;99.90;;;;;;5097183;28;20075;-76
2023/03/25 03:43:40;;;;;;;6.50;2.35;;;8.00;99.90;;;;;;5096938;28;20131;-75
2023/03/25 03:46:15;;;;;;;7.72;3.22;;;8.00;99.90;;;;;;5097142;28;20491;-76
2023/03/25 03:48:46;;;;;;;7.70;2.05;;;8.00;99.90;;;;;;5079817;28;20373;-76
2023/03/25 03:51:20;;;;;;;7.68;2.33;;;8.00;99.90;;;;;;5096863;28;20044;-76
2023/03/25 03:54:25;;;;;;;5.00;2.22;;;7.90;99.90;;;;;;5096839;28;20044;-76
2023/03/25 03:57:01;;;;;;;8.77;1.92;;;7.90;99.90;;;;;;5079468;28;20090;-75
2023/03/25 03:59:41;;;;;;;6.38;2.00;;;8.00;99.90;;;;;;5097212;28;20036;-75
2023/03/25 04:02:38;;;;;;;7.40;2.55;;;7.90;99.90;;;;;;5079479;28;20384;-75
2023/03/25 04:05:07;;;;;;;6.28;2.20;;;8.00;99.90;;;;;;5076623;28;20413;-75
2023/03/25 04:07:44;;;;;;;6.80;2.10;;;8.00;99.90;;;;;;5062196;28;20048;-74
2023/03/25 04:10:33;;;;;;;6.60;2.67;;;8.00;99.90;;;;;;5096298;28;20055;-73
2023/03/25 04:13:03;;;;;;;8.50;3.05;;;8.00;99.90;;;;;;5097227;28;20115;-75
2023/03/25 04:15:29;;;;;;;5.78;2.20;;;8.00;99.90;;;;;;5078744;28;20097;-74
2023/03/25 04:17:54;;;;;;;7.53;1.98;;;8.00;99.90;;;;;;5096178;28;20449;-75
2023/03/25 04:20:24;;;;;;;8.98;2.45;;;8.00;99.90;;;;;;5096180;28;20127;-76
2023/03/25 04:22:51;;;;;;;5.47;2.80;;;8.00;99.90;;;;;;5078305;28;20051;-75
2023/03/25 04:25:20;;;;;;;5.03;2.25;;;8.10;99.90;;;;;;5079091;28;20043;-74
2023/03/25 04:27:48;;;;;;;8.70;2.03;;;8.00;99.90;;;;;;5096044;28;20044;-74
2023/03/25 04:30:18;;;;;;;6.07;2.42;;;8.00;99.90;;;;;;5096071;28;20052;-74
2023/03/25 04:32:45;;;;;;;7.50;2.40;;;8.00;99.90;;;;;;5095945;28;20048;-74
2023/03/25 04:35:17;;;;;;;5.00;2.08;;;8.00;99.90;;;;;;5095559;28;20488;-75
2023/03/25 04:37:52;;;;;;;6.10;2.55;;;7.90;99.90;;;;;;5096290;28;20115;-75
2023/03/25 04:40:18;;;;;;;6.20;2.00;;;7.90;99.90;;;;;;5096342;28;20046;-75
2023/03/25 04:42:45;;;;;;;4.80;2.15;;;7.90;99.90;;;;;;5095741;28;20532;-74
2023/03/25 04:45:15;;;;;;;7.03;2.28;;;7.90;99.90;;;;;;5077939;28;20476;-74
2023/03/25 04:47:46;;;;;;;7.10;2.55;;;7.90;99.90;;;;;;5094892;28;20036;-75
2023/03/25 04:50:24;;;;;;;8.63;2.38;;;7.80;99.90;;;;;;5096306;28;20051;-75
2023/03/25 04:52:51;;;;;;;8.25;2.78;;;7.90;99.90;;;;;;5096433;28;20119;-74
2023/03/25 04:55:19;;;;;;;9.07;3.35;;;7.80;99.90;;;;;;5096060;28;20084;-74
2023/03/25 04:57:50;;;;;;;5.85;2.45;;;7.90;99.90;;;;;;5095403;28;20051;-75
2023/03/25 05:00:18;;;;;;;5.82;2.50;;;7.90;99.90;;;;;;5096160;28;20170;-74
2023/03/25 05:02:46;;;;;;;8.43;2.58;;;7.90;99.90;;;;;;5096150;28;20044;-76
2023/03/25 05:05:17;;;;;;;7.28;2.55;;;7.90;99.90;;;;;;5095335;28;20054;-75
2023/03/25 05:07:53;;;;;;;6.80;2.15;;;7.90;99.90;;;;;;5095871;28;20040;-74
2023/03/25 05:10:22;;;;;;;7.47;2.80;;;7.90;99.90;;;;;;5095324;28;20048;-74
2023/03/25 05:12:47;;;;;;;9.88;3.15;;;7.80;99.90;;;;;;5095964;28;20149;-75
2023/03/25 05:15:15;;;;;;;7.13;2.55;;;7.80;99.90;;;;;;5060535;28;20048;-74
2023/03/25 05:17:42;;;;;;;7.88;3.05;;;7.80;99.90;;;;;;5077263;28;20079;-75
2023/03/25 05:20:10;;;;;;;8.10;2.97;;;7.90;99.90;;;;;;5095110;28;20044;-75
2023/03/25 05:22:39;;;;;;;6.32;2.83;;;7.80;99.90;;;;;;5095066;28;20051;-75
2023/03/25 05:25:06;;;;;;;8.63;3.35;;;7.80;99.90;;;;;;5094898;28;20039;-75
2023/03/25 05:27:33;;;;;;;7.93;3.05;;;7.80;99.90;;;;;;5095314;28;20094;-75
2023/03/25 05:29:59;;;;;;;8.30;3.40;;;7.90;99.90;;;;;;5060383;28;20048;-75
2023/03/25 05:32:32;;;;;;;9.18;3.55;;;7.80;99.90;;;;;;5094840;28;20047;-75
2023/03/25 05:34:59;;;;;;;7.18;3.38;;;7.90;99.90;;;;;;5094881;28;20054;-75
2023/03/25 05:37:25;;;;;;;5.30;2.90;;;7.90;99.90;;;;;;5094306;28;20493;-74
2023/03/25 05:39:51;;;;;;;8.15;3.70;;;7.90;99.90;;;;;;5094295;28;20492;-75
2023/03/25 05:42:21;;;;;;;7.95;3.95;;;8.00;99.90;;;;;;5094629;28;20058;-75
2023/03/25 05:44:50;;;;;;;8.30;4.40;;;8.00;99.90;;;;;;5094663;28;20087;-73
2023/03/25 05:47:23;;;;;;;6.88;3.20;;;8.00;99.90;;;;;;5076684;28;20130;-75
2023/03/25 05:49:50;;;;;;;7.55;4.30;;;8.00;99.90;;;;;;5094494;28;20481;-75
2023/03/25 05:52:17;;;;;;;6.40;4.47;;;7.90;99.90;;;;;;5094427;28;20055;-76
2023/03/25 05:54:45;;;;;;;10.10;4.60;;;7.80;99.90;;;;;;5094812;28;20055;-74
2023/03/25 05:57:12;;;;;;;6.82;3.45;;;7.70;99.90;;;;;;5094888;28;20048;-76
2023/03/25 05:59:39;;;;;;;9.27;3.65;;;7.70;99.90;;;;;;5077120;28;20428;-75
2023/03/25 06:02:07;;;;;;;5.63;3.15;;;7.60;99.90;;;;;;5094239;28;20123;-74
2023/03/25 06:04:36;;;;;;;5.10;2.63;;;7.50;99.90;;;;;;5076331;28;20052;-75
2023/03/25 06:07:08;;;;;;;6.28;1.60;;;7.50;99.90;;;;;;5076131;28;20083;-76
2023/03/25 06:09:34;;;;;;;4.47;1.92;;;7.40;99.90;;;;;;5094451;28;20032;-77
2023/03/25 06:12:02;;;;;;;4.30;1.60;;;7.20;99.90;;;;;;5094080;28;20564;-76
2023/03/25 06:14:28;;;;;;;3.88;1.33;;;7.10;99.90;;;;;;5094049;28;20044;-74
2023/03/25 06:16:55;;;;;;;4.38;1.40;;;7.00;99.90;;;;;;5094598;28;20094;-76
2023/03/25 06:19:25;;;;;;;6.20;2.20;;;7.00;99.90;;;;;;5094011;28;20399;-76
2023/03/25 06:21:51;;;;;;;4.05;1.40;;;7.00;99.90;;;;;;5076101;28;20071;-74
2023/03/25 06:24:16;;;;;;;5.93;2.67;;;7.10;99.90;;;;;;5094207;28;20044;-74
2023/03/25 06:26:42;;;;;;;6.75;2.63;;;7.20;99.90;;;;;;5076268;28;20496;-75
2023/03/25 06:29:07;;;;;;;5.28;2.53;;;7.30;99.90;;;;;;5094425;28;20358;-74
2023/03/25 06:31:33;;;;;;;4.88;2.75;;;7.50;99.90;;;;;;5094016;28;20040;-75
2023/03/25 06:34:00;;;;;;;6.13;2.50;;;7.50;99.90;;;;;;5094040;28;20090;-74
2023/03/25 06:36:26;;;;;;;6.90;2.70;;;7.50;99.90;;;;;;5075886;28;20046;-74
2023/03/25 06:38:52;;;;;;;7.60;3.00;;;7.50;99.90;;;;;;5094418;28;20115;-75
2023/03/25 06:41:19;;;;;;;7.05;2.40;;;7.50;99.90;;;;;;5093564;28;20109;-75
2023/03/25 06:43:46;;;;;;;5.70;2.53;;;7.50;99.90;;;;;;5093706;28;20048;-75
2023/03/25 06:46:12;;;;;;;6.97;2.47;;;7.50;99.90;;;;;;5093642;28;20048;-75
2023/03/25 06:48:38;;;;;;;8.85;2.33;;;7.50;99.90;;;;;;5094283;28;20040;-75
2023/03/25 06:51:04;;;;;;;4.13;2.20;;;7.50;99.90;;;;;;5075703;28;20070;-75
2023/03/25 06:53:30;;;;;;;5.80;1.90;;;7.50;99.90;;;;;;5075712;28;20048;-74
2023/03/25 06:55:56;;;;;;;6.07;2.40;;;7.50;99.90;;;;;;5075721;28;20104;-74
2023/03/25 06:58:22;;;;;;;5.07;1.92;;;7.60;99.90;;;;;;5076200;28;20082;-74
2023/03/25 07:00:53;;;;;;;7.32;1.90;;;7.50;99.90;;;;;;5093450;28;20449;-74
2023/03/25 07:03:19;;;;;;;4.90;2.13;;;7.60;99.90;;;;;;5093458;28;20101;-74
2023/03/25 07:05:46;;;;;;;5.95;2.45;;;7.60;99.90;;;;;;5075324;28;20044;-75
2023/03/25 07:08:12;;;;;;;5.53;1.88;;;7.60;99.90;;;;;;5094115;28;20066;-73
2023/03/25 07:10:39;;;;;;;5.43;2.20;;;7.80;99.90;;;;;;5095472;28;20052;-74
2023/03/25 07:13:05;;;;;;;5.55;1.90;;;7.90;99.90;;;;;;5097476;28;20082;-74
2023/03/25 07:15:31;;;;;;;4.13;1.90;;;8.00;99.90;;;;;;5079627;28;20453;-75
2023/03/25 07:17:56;;;;;;;6.10;2.95;;;8.20;99.90;;;;;;5097354;28;20127;-74
2023/03/25 07:20:22;;;;;;;7.78;3.08;;;8.20;99.90;;;;;;5097634;28;20126;-74
2023/03/25 07:22:48;;;;;;;6.97;2.47;;;8.40;99.90;;;;;;5079755;28;20066;-73
2023/03/25 07:25:13;;;;;;;11.15;2.75;;;8.50;99.90;;;;;;5080120;28;20043;-75
2023/03/25 07:27:39;;;;;;;5.82;2.28;;;8.60;99.90;;;;;;5097232;28;20127;-73
2023/03/25 07:30:06;;;;;;;11.75;2.38;;;8.60;99.90;;;;;;5080103;28;20127;-74
2023/03/25 07:32:31;;;;;;;6.40;2.22;;;8.60;99.90;;;;;;5097116;28;20074;-74
2023/03/25 07:34:57;;;;;;;6.10;2.63;;;8.70;99.90;;;;;;5079531;28;20044;-75
2023/03/25 07:37:23;;;;;;;6.47;2.30;;;8.80;99.90;;;;;;5097796;28;20043;-74
2023/03/25 07:39:48;;;;;;;8.57;2.97;;;8.90;99.90;;;;;;5096960;28;20392;-74
2023/03/25 07:42:14;;;;;;;8.68;2.78;;;8.90;99.90;;;;;;5079046;28;20360;-73
2023/03/25 07:44:40;;;;;;;8.02;2.75;;;9.00;99.90;;;;;;5096940;28;20054;-69
2023/03/25 07:47:05;;;;;;;6.00;2.58;;;9.10;99.90;;;;;;5096875;28;20123;-67
2023/03/25 07:49:31;;;;;;;6.97;2.63;;;9.20;99.90;;;;;;5096508;28;20097;-67
2023/03/25 07:51:57;;;;;;;8.40;2.67;;;9.10;99.90;;;;;;5097307;28;20048;-67
2023/03/25 07:54:23;;;;;;;9.60;3.75;;;8.90;99.90;;;;;;5097282;28;20389;-67
2023/03/25 07:56:51;;;;;;;5.95;2.08;;;8.70;99.90;;;;;;5096443;28;20554;-67
2023/03/25 07:59:17;;;;;;;6.63;3.10;;;8.50;99.90;;;;;;5079167;28;20070;-68
2023/03/25 08:01:43;;;;;;;6.72;3.17;;;8.40;99.90;;;;;;5096283;28;20554;-67
2023/03/25 08:04:09;;;;;;;9.70;2.88;;;8.40;99.90;;;;;;5096500;28;20044;-67
2023/03/25 08:06:35;;;;;;;8.38;2.72;;;8.30;99.90;;;;;;5078590;28;20052;-68
2023/03/25 08:09:00;;;;;;;10.40;3.55;;;8.30;99.90;;;;;;5097038;28;20052;-67
2023/03/25 08:11:26;;;;;;;11.05;3.03;;;8.30;99.90;;;;;;5096813;28;20056;-67
2023/03/25 08:13:52;;;;;;;6.72;2.60;;;8.30;99.90;;;;;;5078591;28;20055;-66
2023/03/25 08:16:17;;;;;;;9.00;2.60;;;8.20;99.90;;;;;;5096391;28;20495;-66
2023/03/25 08:18:51;;;;;;;5.88;2.20;;;8.20;99.90;;;;;;5096185;28;20066;-66
2023/03/25 08:21:23;;;;;;;10.30;2.80;;;8.20;99.90;;;;;;5096187;28;20080;-67
2023/03/25 08:23:51;;;;;;;6.18;2.20;;;8.20;99.90;;;;;;5096287;28;20052;-67
2023/03/25 08:26:16;;;;;;;7.88;2.10;;;8.20;99.90;;;;;;5096243;28;20052;-67
2023/03/25 08:28:42;;;;;;;7.07;1.80;;;8.10;99.90;;;;;;5096133;28;20072;-67
2023/03/25 08:31:08;;;;;;;6.03;1.92;;;8.00;99.90;;;;;;5095650;28;20044;-67
2023/03/25 08:33:39;;;;;;;7.35;2.67;;;8.00;99.90;;;;;;5096035;28;20097;-68
2023/03/25 08:36:08;;;;;;;10.65;2.67;;;8.10;99.90;;;;;;5096758;28;20036;-67
2023/03/25 08:38:34;;;;;;;9.85;2.65;;;8.20;99.90;;;;;;5095848;28;20040;-66
2023/03/25 08:41:01;;;;;;;7.90;2.30;;;8.20;99.90;;;;;;5095812;28;20054;-67
2023/03/25 08:43:27;;;;;;;6.90;2.20;;;8.40;99.90;;;;;;5095771;28;20048;-67
2023/03/25 08:45:52;;;;;;;9.82;2.38;;;8.50;99.90;;;;;;5095436;28;20088;-67
2023/03/25 08:48:18;;;;;;;6.85;1.92;;;8.60;99.90;;;;;;5095689;28;20044;-67
2023/03/25 08:50:44;;;;;;;14.60;2.50;;;8.60;99.90;;;;;;5095535;28;20044;-67
2023/03/25 08:53:10;;;;;;;10.50;2.80;;;8.60;99.90;;;;;;5095635;28;20044;-67
2023/03/25 08:55:39;;;;;;;9.95;2.88;;;8.60;99.90;;;;;;5095575;28;20043;-67
2023/03/25 08:58:06;;;;;;;7.35;2.15;;;8.60;99.90;;;;;;5094503;28;20123;-75
2023/03/25 09:00:34;;;;;;;11.15;2.90;;;8.70;99.90;;;;;;5095676;28;20075;-79
2023/03/25 09:03:01;;;;;;;6.07;1.70;;;8.90;99.90;;;;;;5095425;28;20055;-75
2023/03/25 09:05:27;;;;;;;8.68;2.35;;;9.00;99.90;;;;;;5095302;28;20127;-76
2023/03/25 09:07:52;;;;;;;7.82;2.72;;;8.90;99.90;;;;;;5095319;28;20137;-77
2023/03/25 09:10:18;;;;;;;7.25;2.53;;;9.00;99.90;;;;;;5095141;28;20423;-77
2023/03/25 09:12:44;;;;;;;6.57;2.38;;;9.00;99.90;;;;;;5095615;28;20048;-83
2023/03/25 09:15:11;;;;;;;7.50;2.90;;;9.00;99.90;;;;;;5095122;28;20051;-79
2023/03/25 09:17:38;;;;;;;8.70;2.75;;;8.90;99.90;;;;;;5095318;28;20044;-81
2023/03/25 09:20:07;;;;;;;11.93;2.40;;;8.90;99.90;;;;;;5077823;28;20412;-80
2023/03/25 09:22:33;;;;;;;7.40;2.50;;;8.90;99.90;;;;;;5077273;28;20093;-81
2023/03/25 09:24:59;;;;;;;9.32;2.65;;;9.10;99.90;;;;;;5077161;28;20404;-77
2023/03/25 09:27:25;;;;;;;9.70;2.90;;;9.30;99.90;;;;;;5094920;28;20044;-79
2023/03/25 09:29:51;;;;;;;9.13;2.40;;;9.40;99.90;;;;;;5094761;28;20044;-81
2023/03/25 09:32:17;;;;;;;8.68;2.58;;;9.40;99.90;;;;;;5094213;28;20126;-81
2023/03/25 09:34:43;;;;;;;7.03;2.08;;;9.20;99.90;;;;;;5094928;28;20127;-82
2023/03/25 09:37:10;;;;;;;7.63;2.47;;;9.00;99.90;;;;;;5094933;28;20044;-79
2023/03/25 09:39:36;;;;;;;8.45;2.70;;;8.70;99.90;;;;;;5077245;28;20412;-75
2023/03/25 09:42:07;;;;;;;8.07;2.80;;;8.50;99.90;;;;;;5095144;28;20040;-75
2023/03/25 09:44:55;;;;;;;8.38;3.03;;;8.50;99.90;;;;;;5094615;28;20080;-77
2023/03/25 09:47:23;;;;;;;10.60;3.03;;;8.80;99.90;;;;;;5076255;28;20044;-79
2023/03/25 09:49:53;;;;;;;9.18;2.53;;;8.90;99.90;;;;;;5093959;28;20123;-77
2023/03/25 09:52:25;;;;;;;10.80;3.05;;;9.00;99.90;;;;;;5094333;28;20040;-78
2023/03/25 09:54:55;;;;;;;12.13;3.55;;;9.10;99.90;;;;;;5094354;28;20047;-78
2023/03/25 09:57:26;;;;;;;8.25;2.78;;;9.10;99.90;;;;;;5076416;28;20044;-80
2023/03/25 09:59:55;;;;;;;7.38;2.35;;;9.00;99.90;;;;;;5094431;28;20105;-78
2023/03/25 10:02:35;;;;;;;7.60;2.70;;;8.90;99.90;;;;;;5094484;28;20089;-77
2023/03/25 10:05:17;;;;;;;9.27;2.22;;;8.90;99.90;;;;;;5076620;28;20124;-79
2023/03/25 10:08:01;;;;;;;6.25;2.35;;;8.80;99.90;;;;;;5076438;28;20148;-79
2023/03/25 10:10:35;;;;;;;8.45;2.15;;;8.80;99.90;;;;;;5096074;28;20063;-80
2023/03/25 10:13:20;;;;;;;5.65;1.88;;;8.70;99.90;;;;;;5096282;28;20056;-81
2023/03/25 10:16:36;;;;;;;6.97;1.48;;;8.70;99.90;;;;;;5095035;28;20478;-77
2023/03/25 10:19:19;;;;;;;6.97;1.85;;;8.60;99.90;;;;;;5074787;28;20056;-78
2023/03/25 10:21:56;;;;;;;6.43;2.40;;;8.70;99.90;;;;;;5093939;28;20044;-76
2023/03/25 10:24:23;;;;;;;9.70;2.53;;;8.90;99.90;;;;;;5094169;28;20070;-76
2023/03/25 10:27:03;;;;;;;6.35;2.53;;;9.00;99.90;;;;;;5093799;28;20110;-77
2023/03/25 10:29:39;;;;;;;8.88;3.40;;;9.10;99.90;;;;;;5076587;28;20093;-80
2023/03/25 10:32:16;;;;;;;7.18;2.10;;;9.00;99.90;;;;;;5094274;28;20036;-76
2023/03/25 10:34:49;;;;;;;6.43;2.00;;;9.10;99.90;;;;;;5094266;28;20436;-76
2023/03/25 10:37:30;;;;;;;6.10;1.80;;;9.20;99.90;;;;;;5076119;28;20083;-76
2023/03/25 10:40:09;;;;;;;6.50;1.77;;;9.30;99.90;;;;;;5094038;28;20135;-78
2023/03/25 10:42:42;;;;;;;7.50;2.20;;;9.30;99.90;;;;;;5093409;28;20036;-76
2023/03/25 10:45:13;;;;;;;9.70;2.10;;;9.30;99.90;;;;;;5092810;28;20046;-77
2023/03/25 10:47:41;;;;;;;6.45;1.80;;;9.40;99.90;;;;;;5093435;28;20055;-78
2023/03/25 10:50:17;;;;;;;6.40;1.80;;;9.40;99.90;;;;;;5093677;28;20048;-74
2023/03/25 10:52:44;;;;;;;7.57;2.00;;;9.40;99.90;;;;;;5093906;28;20052;-75
2023/03/25 10:55:22;;;;;;;7.53;2.03;;;9.30;99.90;;;;;;5093294;28;20503;-75
2023/03/25 10:57:49;;;;;;;6.32;1.85;;;9.10;99.90;;;;;;5075780;28;20473;-78
2023/03/25 11:00:17;;;;;;;8.77;2.67;;;8.90;99.90;;;;;;5076012;28;20467;-78
2023/03/25 11:02:43;;;;;;;7.80;2.33;;;8.90;99.90;;;;;;5075365;28;20128;-76
2023/03/25 11:05:11;;;;;;;6.55;2.10;;;8.90;99.90;;;;;;5093728;28;20429;-77
2023/03/25 11:07:49;;;;;;;7.50;1.90;;;9.10;99.90;;;;;;5093155;28;20043;-74
2023/03/25 11:10:25;;;;;;;10.18;2.83;;;9.30;99.90;;;;;;5075154;28;20068;-74
2023/03/25 11:12:52;;;;;;;7.57;2.20;;;9.30;99.90;;;;;;5093230;28;20048;-78
2023/03/25 11:15:29;;;;;;;7.22;2.33;;;9.20;99.90;;;;;;5093127;28;20048;-77
2023/03/25 11:18:14;;;;;;;11.88;2.78;;;9.10;99.90;;;;;;5092744;28;20571;-79
2023/03/25 11:20:47;;;;;;;5.88;2.08;;;9.00;99.90;;;;;;5093140;28;20063;-75
2023/03/25 11:23:37;;;;;;;6.43;2.03;;;9.00;99.90;;;;;;5093080;28;20109;-76
2023/03/25 11:26:12;;;;;;;9.20;2.30;;;9.00;99.90;;;;;;5093761;28;20078;-79
2023/03/25 11:28:41;;;;;;;8.98;1.95;;;9.10;99.90;;;;;;5093615;28;20036;-80
2023/03/25 11:31:18;;;;;;;11.68;2.90;;;9.10;99.90;;;;;;5092920;28;20085;-78
2023/03/25 11:33:58;;;;;;;5.88;1.50;;;9.40;99.90;;;;;;5075399;28;20378;-78
2023/03/25 11:36:28;;;;;;;7.07;2.45;;;9.70;99.90;;;;;;5093030;28;20048;-83
2023/03/25 11:39:01;;;;;;;7.30;1.85;;;9.80;99.90;;;;;;5093345;28;20044;-77
2023/03/25 11:41:29;;;;;;;10.05;2.55;;;10.00;99.90;;;;;;5093618;28;20365;-75
2023/03/25 11:43:55;;;;;;;5.72;1.92;;;10.10;99.90;;;;;;5093673;28;20429;-77
2023/03/25 11:46:22;;;;;;;10.02;2.08;;;10.20;99.90;;;;;;5075047;28;20052;-76
2023/03/25 11:48:49;;;;;;;4.63;1.60;;;10.30;99.90;;;;;;5093335;28;20394;-77
2023/03/25 11:51:24;;;;;;;5.63;1.75;;;10.30;99.90;;;;;;5092766;28;20048;-76
2023/03/25 11:54:04;;;;;;;7.53;2.07;;;10.30;99.90;;;;;;5075856;28;20129;-77
2023/03/25 11:56:37;;;;;;;6.45;1.50;;;10.30;99.90;;;;;;5077549;28;20055;-77
2023/03/25 11:59:07;;;;;;;6.38;2.15;;;10.30;99.90;;;;;;5078457;28;20044;-77
2023/03/25 12:01:39;;;;;;;6.30;1.75;;;10.40;99.90;;;;;;5078283;28;20088;-77
2023/03/25 12:04:16;;;;;;;6.70;1.80;;;10.40;99.90;;;;;;5096417;28;20048;-77
2023/03/25 12:06:59;;;;;;;5.35;1.83;;;10.50;99.90;;;;;;5078905;28;20051;-78
2023/03/25 12:09:26;;;;;;;8.07;1.70;;;10.50;99.90;;;;;;5096656;28;20075;-77
2023/03/25 12:12:23;;;;;;;6.78;1.90;;;10.40;99.90;;;;;;5096731;28;20089;-77
2023/03/25 12:15:04;;;;;;;5.40;1.42;;;10.30;99.90;;;;;;5078247;28;20048;-76
2023/03/25 12:17:37;;;;;;;5.72;1.40;;;9.90;99.90;;;;;;5096255;28;20400;-76
2023/03/25 12:20:22;;;;;;;3.85;1.42;;;9.80;99.90;;;;;;5097040;28;20048;-77
2023/03/25 12:22:58;;;;;;;10.13;1.70;;;9.90;99.90;;;;;;5096936;28;20062;-77
2023/03/25 12:25:29;;;;;;;6.63;1.33;;;10.20;99.90;;;;;;5096084;28;20086;-75
2023/03/25 12:28:32;;;;;;;6.40;1.70;;;10.30;99.90;;;;;;5095644;28;20527;-78
2023/03/25 12:31:01;;;;;;;4.50;1.55;;;10.40;99.90;;;;;;5096281;28;20456;-77
2023/03/25 12:33:45;;;;;;;7.25;2.10;;;10.40;99.90;;;;;;5095686;28;20421;-76
2023/03/25 12:36:48;;;;;;;6.93;1.60;;;10.40;99.90;;;;;;5078330;28;20060;-77
2023/03/25 12:39:22;;;;;;;9.75;1.77;;;10.40;99.90;;;;;;5095680;28;20047;-76
2023/03/25 12:42:39;;;;;;;6.40;2.15;;;10.50;99.90;;;;;;5096537;28;20056;-78
2023/03/25 12:45:31;;;;;;;7.88;2.25;;;10.70;99.90;;;;;;5023207;28;20090;-77
2023/03/25 12:48:20;;;;;;;4.90;1.50;;;11.10;99.90;;;;;;5064472;28;20400;-77
2023/03/25 12:51:13;;;;;;;7.85;1.80;;;11.00;99.90;;;;;;5077620;28;20082;-79
2023/03/25 12:53:57;;;;;;;6.00;1.88;;;10.90;99.90;;;;;;5095385;28;20132;-78
2023/03/25 12:56:35;;;;;;;6.80;1.50;;;10.80;99.90;;;;;;5095517;28;20046;-77
2023/03/25 12:59:19;;;;;;;7.95;1.65;;;10.80;99.90;;;;;;5095346;28;20044;-78
2023/03/25 13:02:03;;;;;;;6.50;1.60;;;10.70;99.90;;;;;;5096078;28;20051;-81
2023/03/25 13:04:50;;;;;;;5.60;1.58;;;10.70;99.90;;;;;;5095164;28;20048;-74
2023/03/25 13:07:19;;;;;;;6.82;1.70;;;10.90;99.90;;;;;;5094368;28;20048;-79
2023/03/25 13:10:07;;;;;;;4.65;1.25;;;11.20;99.90;;;;;;5095099;28;20047;-79
2023/03/25 13:12:39;;;;;;;6.20;1.17;;;11.50;99.90;;;;;;5094366;28;20138;-78
2023/03/25 13:15:45;;;;;;;4.78;1.50;;;11.50;99.90;;;;;;5095441;28;20405;-79
2023/03/25 13:18:26;;;;;;;5.25;1.50;;;11.40;99.90;;;;;;4993356;28;20121;-77
2023/03/25 13:21:14;;;;;;;6.38;1.50;;;11.40;99.90;;;;;;5087441;28;20408;-80